sensor_id;sensor_type;location;lat;lon;timestamp;P1;durP1;ratioP1;P2;durP2;ratioP2
15958;SDS011;8078;47.822;9.402;2023-12-04T00:00:00;371.67;;;27.20;;
15958;SDS011;8078;47.822;9.402;2023-12-04T00:02:27;231.17;;;20.63;;
15958;SDS011;8078;47.822;9.402;2023-12-04T00:04:53;323.13;;;24.27;;
15958;SDS011;8078;47.822;9.402;2023-12-04T00:07:18;321.13;;;23.47;;
15958;SDS011;8078;47.822;9.402;2023-12-04T00:09:44;447.73;;;31.27;;
15958;SDS011;8078;47.822;9.402;2023-12-04T00:12:09;337.90;;;25.60;;
15958;SDS011;8078;47.822;9.402;2023-12-04T00:14:35;391.27;;;26.20;;
15958;SDS011;8078;47.822;9.402;2023-12-04T00:17:00;383.67;;;27.90;;
15958;SDS011;8078;47.822;9.402;2023-12-04T00:19:26;241.77;;;22.10;;
15958;SDS011;8078;47.822;9.402;2023-12-04T00:21:51;141.93;;;16.53;;
15958;SDS011;8078;47.822;9.402;2023-12-04T00:24:17;329.53;;;26.17;;
15958;SDS011;8078;47.822;9.402;2023-12-04T00:26:43;318.57;;;25.20;;
15958;SDS011;8078;47.822;9.402;2023-12-04T00:29:08;195.80;;;19.23;;
15958;SDS011;8078;47.822;9.402;2023-12-04T00:31:34;318.00;;;25.87;;
15958;SDS011;8078;47.822;9.402;2023-12-04T00:33:59;457.73;;;33.47;;
15958;SDS011;8078;47.822;9.402;2023-12-04T00:36:25;280.03;;;22.97;;
15958;SDS011;8078;47.822;9.402;2023-12-04T00:38:51;379.13;;;24.13;;
15958;SDS011;8078;47.822;9.402;2023-12-04T00:41:16;259.70;;;20.63;;
15958;SDS011;8078;47.822;9.402;2023-12-04T00:43:42;456.97;;;32.00;;
15958;SDS011;8078;47.822;9.402;2023-12-04T00:46:07;154.63;;;17.27;;
15958;SDS011;8078;47.822;9.402;2023-12-04T00:48:33;269.97;;;21.83;;
15958;SDS011;8078;47.822;9.402;2023-12-04T00:50:58;222.10;;;21.37;;
15958;SDS011;8078;47.822;9.402;2023-12-04T00:53:24;366.47;;;29.30;;
15958;SDS011;8078;47.822;9.402;2023-12-04T00:55:50;216.57;;;19.87;;
15958;SDS011;8078;47.822;9.402;2023-12-04T00:58:15;231.97;;;21.53;;
15958;SDS011;8078;47.822;9.402;2023-12-04T01:00:41;221.93;;;19.03;;
15958;SDS011;8078;47.822;9.402;2023-12-04T01:03:06;279.73;;;23.47;;
15958;SDS011;8078;47.822;9.402;2023-12-04T01:05:32;381.07;;;27.50;;
15958;SDS011;8078;47.822;9.402;2023-12-04T01:07:57;348.70;;;24.23;;
15958;SDS011;8078;47.822;9.402;2023-12-04T01:10:23;164.87;;;17.50;;
15958;SDS011;8078;47.822;9.402;2023-12-04T01:12:49;196.67;;;17.23;;
15958;SDS011;8078;47.822;9.402;2023-12-04T01:15:14;169.73;;;17.67;;
15958;SDS011;8078;47.822;9.402;2023-12-04T01:17:40;96.67;;;15.17;;
15958;SDS011;8078;47.822;9.402;2023-12-04T01:20:05;290.17;;;21.87;;
15958;SDS011;8078;47.822;9.402;2023-12-04T01:22:32;209.27;;;18.47;;
15958;SDS011;8078;47.822;9.402;2023-12-04T01:24:57;254.97;;;20.70;;
15958;SDS011;8078;47.822;9.402;2023-12-04T01:27:23;318.80;;;23.33;;
15958;SDS011;8078;47.822;9.402;2023-12-04T01:29:48;167.47;;;18.50;;
15958;SDS011;8078;47.822;9.402;2023-12-04T01:32:14;260.20;;;21.10;;
15958;SDS011;8078;47.822;9.402;2023-12-04T01:34:39;77.77;;;12.47;;
15958;SDS011;8078;47.822;9.402;2023-12-04T01:37:05;88.47;;;14.97;;
15958;SDS011;8078;47.822;9.402;2023-12-04T01:39:30;26.37;;;12.13;;
15958;SDS011;8078;47.822;9.402;2023-12-04T01:41:56;346.23;;;24.87;;
15958;SDS011;8078;47.822;9.402;2023-12-04T01:44:22;61.40;;;13.53;;
15958;SDS011;8078;47.822;9.402;2023-12-04T01:46:48;426.13;;;30.50;;
15958;SDS011;8078;47.822;9.402;2023-12-04T01:49:14;81.53;;;15.00;;
15958;SDS011;8078;47.822;9.402;2023-12-04T01:51:39;571.20;;;42.33;;
15958;SDS011;8078;47.822;9.402;2023-12-04T01:54:05;575.67;;;42.07;;
15958;SDS011;8078;47.822;9.402;2023-12-04T01:56:32;422.20;;;31.90;;
15958;SDS011;8078;47.822;9.402;2023-12-04T01:58:59;99.13;;;15.10;;
15958;SDS011;8078;47.822;9.402;2023-12-04T02:01:25;654.03;;;45.97;;
15958;SDS011;8078;47.822;9.402;2023-12-04T02:03:52;602.70;;;43.07;;
15958;SDS011;8078;47.822;9.402;2023-12-04T02:06:19;562.30;;;40.60;;
15958;SDS011;8078;47.822;9.402;2023-12-04T02:08:46;351.63;;;27.97;;
15958;SDS011;8078;47.822;9.402;2023-12-04T02:11:12;445.03;;;34.03;;
15958;SDS011;8078;47.822;9.402;2023-12-04T02:13:38;543.03;;;36.00;;
15958;SDS011;8078;47.822;9.402;2023-12-04T02:16:05;432.57;;;33.80;;
15958;SDS011;8078;47.822;9.402;2023-12-04T02:18:34;455.97;;;35.40;;
15958;SDS011;8078;47.822;9.402;2023-12-04T02:21:01;393.73;;;26.13;;
15958;SDS011;8078;47.822;9.402;2023-12-04T02:23:27;442.33;;;31.83;;
15958;SDS011;8078;47.822;9.402;2023-12-04T02:25:58;522.33;;;36.43;;
15958;SDS011;8078;47.822;9.402;2023-12-04T02:28:28;645.90;;;44.47;;
15958;SDS011;8078;47.822;9.402;2023-12-04T02:30:57;511.03;;;40.10;;
15958;SDS011;8078;47.822;9.402;2023-12-04T02:33:24;59.87;;;13.13;;
15958;SDS011;8078;47.822;9.402;2023-12-04T02:35:51;303.80;;;26.27;;
15958;SDS011;8078;47.822;9.402;2023-12-04T02:38:18;56.27;;;13.47;;
15958;SDS011;8078;47.822;9.402;2023-12-04T02:40:44;28.10;;;11.60;;
15958;SDS011;8078;47.822;9.402;2023-12-04T02:43:10;217.60;;;21.37;;
15958;SDS011;8078;47.822;9.402;2023-12-04T02:45:35;377.40;;;27.70;;
15958;SDS011;8078;47.822;9.402;2023-12-04T02:48:01;449.67;;;30.37;;
15958;SDS011;8078;47.822;9.402;2023-12-04T02:50:26;330.77;;;21.97;;
15958;SDS011;8078;47.822;9.402;2023-12-04T02:52:52;562.73;;;37.70;;
15958;SDS011;8078;47.822;9.402;2023-12-04T02:55:17;309.60;;;25.30;;
15958;SDS011;8078;47.822;9.402;2023-12-04T02:57:43;507.97;;;35.67;;
15958;SDS011;8078;47.822;9.402;2023-12-04T03:00:09;334.70;;;24.70;;
15958;SDS011;8078;47.822;9.402;2023-12-04T03:02:35;33.97;;;10.93;;
15958;SDS011;8078;47.822;9.402;2023-12-04T03:05:00;184.40;;;19.10;;
15958;SDS011;8078;47.822;9.402;2023-12-04T03:07:26;242.03;;;19.57;;
15958;SDS011;8078;47.822;9.402;2023-12-04T03:09:52;445.43;;;29.50;;
15958;SDS011;8078;47.822;9.402;2023-12-04T03:12:17;306.83;;;21.40;;
15958;SDS011;8078;47.822;9.402;2023-12-04T03:14:43;160.57;;;15.80;;
15958;SDS011;8078;47.822;9.402;2023-12-04T03:17:09;73.00;;;11.57;;
15958;SDS011;8078;47.822;9.402;2023-12-04T03:19:35;26.00;;;10.40;;
15958;SDS011;8078;47.822;9.402;2023-12-04T03:22:00;18.03;;;8.60;;
15958;SDS011;8078;47.822;9.402;2023-12-04T03:24:26;69.87;;;13.30;;
15958;SDS011;8078;47.822;9.402;2023-12-04T03:26:52;20.27;;;8.13;;
15958;SDS011;8078;47.822;9.402;2023-12-04T03:29:17;47.70;;;8.53;;
15958;SDS011;8078;47.822;9.402;2023-12-04T03:31:43;16.53;;;9.27;;
15958;SDS011;8078;47.822;9.402;2023-12-04T03:34:09;12.90;;;7.63;;
15958;SDS011;8078;47.822;9.402;2023-12-04T03:36:34;13.17;;;6.90;;
15958;SDS011;8078;47.822;9.402;2023-12-04T03:39:00;14.47;;;8.10;;
15958;SDS011;8078;47.822;9.402;2023-12-04T03:41:25;26.87;;;8.50;;
15958;SDS011;8078;47.822;9.402;2023-12-04T03:43:51;19.47;;;9.40;;
15958;SDS011;8078;47.822;9.402;2023-12-04T03:46:16;29.67;;;10.43;;
15958;SDS011;8078;47.822;9.402;2023-12-04T03:48:42;102.00;;;13.47;;
15958;SDS011;8078;47.822;9.402;2023-12-04T03:51:07;68.07;;;12.50;;
15958;SDS011;8078;47.822;9.402;2023-12-04T03:53:33;115.57;;;14.43;;
15958;SDS011;8078;47.822;9.402;2023-12-04T03:55:58;47.63;;;13.30;;
15958;SDS011;8078;47.822;9.402;2023-12-04T03:58:24;240.47;;;19.17;;
15958;SDS011;8078;47.822;9.402;2023-12-04T04:00:50;193.23;;;18.57;;
15958;SDS011;8078;47.822;9.402;2023-12-04T04:03:15;189.10;;;18.70;;
15958;SDS011;8078;47.822;9.402;2023-12-04T04:05:41;216.83;;;20.30;;
15958;SDS011;8078;47.822;9.402;2023-12-04T04:08:07;350.63;;;23.90;;
15958;SDS011;8078;47.822;9.402;2023-12-04T04:10:32;225.53;;;20.17;;
15958;SDS011;8078;47.822;9.402;2023-12-04T04:12:59;205.60;;;19.90;;
15958;SDS011;8078;47.822;9.402;2023-12-04T04:15:25;233.83;;;17.47;;
15958;SDS011;8078;47.822;9.402;2023-12-04T04:17:51;243.13;;;19.83;;
15958;SDS011;8078;47.822;9.402;2023-12-04T04:20:17;258.50;;;20.97;;
15958;SDS011;8078;47.822;9.402;2023-12-04T04:22:43;339.50;;;25.73;;
15958;SDS011;8078;47.822;9.402;2023-12-04T04:25:10;280.67;;;20.77;;
15958;SDS011;8078;47.822;9.402;2023-12-04T04:27:36;293.40;;;22.17;;
15958;SDS011;8078;47.822;9.402;2023-12-04T04:30:02;239.33;;;20.30;;
15958;SDS011;8078;47.822;9.402;2023-12-04T04:32:28;67.90;;;12.37;;
15958;SDS011;8078;47.822;9.402;2023-12-04T04:34:54;41.57;;;11.37;;
15958;SDS011;8078;47.822;9.402;2023-12-04T04:37:20;22.13;;;9.83;;
15958;SDS011;8078;47.822;9.402;2023-12-04T04:39:46;32.63;;;10.90;;
15958;SDS011;8078;47.822;9.402;2023-12-04T04:42:12;19.93;;;9.70;;
15958;SDS011;8078;47.822;9.402;2023-12-04T04:44:38;21.47;;;9.83;;
15958;SDS011;8078;47.822;9.402;2023-12-04T04:47:04;16.80;;;8.17;;
15958;SDS011;8078;47.822;9.402;2023-12-04T04:49:30;13.40;;;7.23;;
15958;SDS011;8078;47.822;9.402;2023-12-04T04:51:56;12.03;;;7.00;;
15958;SDS011;8078;47.822;9.402;2023-12-04T04:54:22;17.47;;;7.33;;
15958;SDS011;8078;47.822;9.402;2023-12-04T04:56:48;15.97;;;7.97;;
15958;SDS011;8078;47.822;9.402;2023-12-04T04:59:14;14.10;;;7.10;;
15958;SDS011;8078;47.822;9.402;2023-12-04T05:01:40;17.93;;;7.83;;
15958;SDS011;8078;47.822;9.402;2023-12-04T05:04:06;20.30;;;8.80;;
15958;SDS011;8078;47.822;9.402;2023-12-04T05:06:32;20.00;;;8.97;;
15958;SDS011;8078;47.822;9.402;2023-12-04T05:08:58;15.40;;;7.67;;
15958;SDS011;8078;47.822;9.402;2023-12-04T05:11:24;16.60;;;8.23;;
15958;SDS011;8078;47.822;9.402;2023-12-04T05:13:50;15.37;;;7.20;;
15958;SDS011;8078;47.822;9.402;2023-12-04T05:16:16;15.67;;;7.90;;
15958;SDS011;8078;47.822;9.402;2023-12-04T05:18:42;12.87;;;7.47;;
15958;SDS011;8078;47.822;9.402;2023-12-04T05:21:08;12.20;;;6.27;;
15958;SDS011;8078;47.822;9.402;2023-12-04T05:23:35;12.47;;;6.53;;
15958;SDS011;8078;47.822;9.402;2023-12-04T05:26:01;11.30;;;5.93;;
15958;SDS011;8078;47.822;9.402;2023-12-04T05:28:27;11.63;;;6.67;;
15958;SDS011;8078;47.822;9.402;2023-12-04T05:30:53;11.40;;;5.87;;
15958;SDS011;8078;47.822;9.402;2023-12-04T05:33:19;11.47;;;6.73;;
15958;SDS011;8078;47.822;9.402;2023-12-04T05:35:47;14.57;;;6.80;;
15958;SDS011;8078;47.822;9.402;2023-12-04T05:38:13;13.87;;;7.07;;
15958;SDS011;8078;47.822;9.402;2023-12-04T05:40:39;13.23;;;6.90;;
15958;SDS011;8078;47.822;9.402;2023-12-04T05:43:05;13.97;;;7.37;;
15958;SDS011;8078;47.822;9.402;2023-12-04T05:45:31;14.03;;;7.20;;
15958;SDS011;8078;47.822;9.402;2023-12-04T05:47:57;13.70;;;7.67;;
15958;SDS011;8078;47.822;9.402;2023-12-04T05:50:23;12.77;;;7.27;;
15958;SDS011;8078;47.822;9.402;2023-12-04T05:52:49;13.87;;;7.60;;
15958;SDS011;8078;47.822;9.402;2023-12-04T05:55:15;15.20;;;7.77;;
15958;SDS011;8078;47.822;9.402;2023-12-04T05:57:41;14.63;;;7.70;;
15958;SDS011;8078;47.822;9.402;2023-12-04T06:00:07;14.07;;;7.37;;
15958;SDS011;8078;47.822;9.402;2023-12-04T06:02:43;11.27;;;6.53;;
15958;SDS011;8078;47.822;9.402;2023-12-04T06:05:10;13.80;;;7.53;;
15958;SDS011;8078;47.822;9.402;2023-12-04T06:07:36;13.67;;;7.33;;
15958;SDS011;8078;47.822;9.402;2023-12-04T06:10:02;14.63;;;6.50;;
15958;SDS011;8078;47.822;9.402;2023-12-04T06:12:31;11.73;;;6.83;;
15958;SDS011;8078;47.822;9.402;2023-12-04T06:14:57;10.90;;;6.57;;
15958;SDS011;8078;47.822;9.402;2023-12-04T06:17:24;12.40;;;6.90;;
15958;SDS011;8078;47.822;9.402;2023-12-04T06:19:50;10.30;;;7.00;;
15958;SDS011;8078;47.822;9.402;2023-12-04T06:22:16;12.90;;;7.17;;
15958;SDS011;8078;47.822;9.402;2023-12-04T06:24:45;13.67;;;7.77;;
15958;SDS011;8078;47.822;9.402;2023-12-04T06:27:12;14.83;;;8.27;;
15958;SDS011;8078;47.822;9.402;2023-12-04T06:29:40;17.03;;;7.93;;
15958;SDS011;8078;47.822;9.402;2023-12-04T06:32:06;16.30;;;8.50;;
15958;SDS011;8078;47.822;9.402;2023-12-04T06:34:33;11.93;;;7.03;;
15958;SDS011;8078;47.822;9.402;2023-12-04T06:36:59;14.33;;;7.70;;
15958;SDS011;8078;47.822;9.402;2023-12-04T06:39:25;14.33;;;7.00;;
15958;SDS011;8078;47.822;9.402;2023-12-04T06:41:53;13.20;;;7.00;;
15958;SDS011;8078;47.822;9.402;2023-12-04T06:44:19;13.03;;;8.00;;
15958;SDS011;8078;47.822;9.402;2023-12-04T06:46:46;11.57;;;7.20;;
15958;SDS011;8078;47.822;9.402;2023-12-04T06:49:15;13.20;;;7.57;;
15958;SDS011;8078;47.822;9.402;2023-12-04T06:51:42;12.33;;;7.03;;
15958;SDS011;8078;47.822;9.402;2023-12-04T06:54:08;8.63;;;6.33;;
15958;SDS011;8078;47.822;9.402;2023-12-04T06:56:34;9.60;;;6.10;;
15958;SDS011;8078;47.822;9.402;2023-12-04T06:59:00;10.53;;;6.07;;
15958;SDS011;8078;47.822;9.402;2023-12-04T07:01:26;10.33;;;6.20;;
15958;SDS011;8078;47.822;9.402;2023-12-04T07:03:52;8.53;;;6.23;;
15958;SDS011;8078;47.822;9.402;2023-12-04T07:06:18;8.30;;;5.93;;
15958;SDS011;8078;47.822;9.402;2023-12-04T07:08:44;9.90;;;5.77;;
15958;SDS011;8078;47.822;9.402;2023-12-04T07:11:10;10.83;;;5.60;;
15958;SDS011;8078;47.822;9.402;2023-12-04T07:13:40;7.10;;;5.53;;
15958;SDS011;8078;47.822;9.402;2023-12-04T07:16:06;7.17;;;5.27;;
15958;SDS011;8078;47.822;9.402;2023-12-04T07:18:32;7.13;;;4.90;;
15958;SDS011;8078;47.822;9.402;2023-12-04T07:20:58;7.23;;;5.23;;
15958;SDS011;8078;47.822;9.402;2023-12-04T07:23:24;5.83;;;4.30;;
15958;SDS011;8078;47.822;9.402;2023-12-04T07:25:50;8.77;;;5.10;;
15958;SDS011;8078;47.822;9.402;2023-12-04T07:28:17;6.27;;;4.70;;
15958;SDS011;8078;47.822;9.402;2023-12-04T07:30:43;6.20;;;4.60;;
15958;SDS011;8078;47.822;9.402;2023-12-04T07:33:09;5.80;;;4.67;;
15958;SDS011;8078;47.822;9.402;2023-12-04T07:35:35;7.13;;;4.67;;
15958;SDS011;8078;47.822;9.402;2023-12-04T07:38:01;7.40;;;4.40;;
15958;SDS011;8078;47.822;9.402;2023-12-04T07:40:28;5.47;;;4.67;;
15958;SDS011;8078;47.822;9.402;2023-12-04T07:42:54;14.90;;;8.23;;
15958;SDS011;8078;47.822;9.402;2023-12-04T07:45:20;11.47;;;6.40;;
15958;SDS011;8078;47.822;9.402;2023-12-04T07:47:46;11.13;;;6.70;;
15958;SDS011;8078;47.822;9.402;2023-12-04T07:50:12;16.90;;;9.77;;
15958;SDS011;8078;47.822;9.402;2023-12-04T07:52:38;17.63;;;9.17;;
15958;SDS011;8078;47.822;9.402;2023-12-04T07:55:04;16.23;;;7.60;;
15958;SDS011;8078;47.822;9.402;2023-12-04T07:57:30;16.73;;;7.87;;
15958;SDS011;8078;47.822;9.402;2023-12-04T07:59:56;13.90;;;7.13;;
15958;SDS011;8078;47.822;9.402;2023-12-04T08:02:22;10.83;;;6.13;;
15958;SDS011;8078;47.822;9.402;2023-12-04T08:04:48;8.53;;;4.67;;
15958;SDS011;8078;47.822;9.402;2023-12-04T08:07:14;12.20;;;5.70;;
15958;SDS011;8078;47.822;9.402;2023-12-04T08:09:40;9.57;;;6.27;;
15958;SDS011;8078;47.822;9.402;2023-12-04T08:12:06;10.47;;;5.73;;
15958;SDS011;8078;47.822;9.402;2023-12-04T08:14:34;9.23;;;6.70;;
15958;SDS011;8078;47.822;9.402;2023-12-04T08:17:00;14.50;;;7.87;;
15958;SDS011;8078;47.822;9.402;2023-12-04T08:19:26;14.40;;;7.33;;
15958;SDS011;8078;47.822;9.402;2023-12-04T08:21:51;12.87;;;6.23;;
15958;SDS011;8078;47.822;9.402;2023-12-04T08:24:18;10.97;;;6.47;;
15958;SDS011;8078;47.822;9.402;2023-12-04T08:26:44;12.23;;;6.87;;
15958;SDS011;8078;47.822;9.402;2023-12-04T08:29:10;7.33;;;4.60;;
15958;SDS011;8078;47.822;9.402;2023-12-04T08:31:36;7.27;;;4.87;;
15958;SDS011;8078;47.822;9.402;2023-12-04T08:34:02;5.63;;;4.27;;
15958;SDS011;8078;47.822;9.402;2023-12-04T08:36:29;4.50;;;3.50;;
15958;SDS011;8078;47.822;9.402;2023-12-04T08:38:55;7.27;;;4.07;;
15958;SDS011;8078;47.822;9.402;2023-12-04T08:41:21;4.93;;;3.83;;
15958;SDS011;8078;47.822;9.402;2023-12-04T08:43:47;7.13;;;4.27;;
15958;SDS011;8078;47.822;9.402;2023-12-04T08:46:13;7.20;;;4.67;;
15958;SDS011;8078;47.822;9.402;2023-12-04T08:48:42;7.67;;;4.80;;
15958;SDS011;8078;47.822;9.402;2023-12-04T08:51:14;7.37;;;4.77;;
15958;SDS011;8078;47.822;9.402;2023-12-04T08:53:40;9.83;;;6.03;;
15958;SDS011;8078;47.822;9.402;2023-12-04T08:56:06;8.00;;;5.87;;
15958;SDS011;8078;47.822;9.402;2023-12-04T08:58:33;9.93;;;5.53;;
15958;SDS011;8078;47.822;9.402;2023-12-04T09:00:59;8.50;;;5.67;;
15958;SDS011;8078;47.822;9.402;2023-12-04T09:03:25;9.90;;;5.40;;
15958;SDS011;8078;47.822;9.402;2023-12-04T09:05:50;8.77;;;5.77;;
15958;SDS011;8078;47.822;9.402;2023-12-04T09:08:17;10.30;;;6.07;;
15958;SDS011;8078;47.822;9.402;2023-12-04T09:10:43;11.40;;;6.33;;
15958;SDS011;8078;47.822;9.402;2023-12-04T09:13:10;12.43;;;7.00;;
15958;SDS011;8078;47.822;9.402;2023-12-04T09:15:36;12.60;;;7.30;;
15958;SDS011;8078;47.822;9.402;2023-12-04T09:18:02;6.77;;;4.40;;
15958;SDS011;8078;47.822;9.402;2023-12-04T09:20:27;5.20;;;3.20;;
15958;SDS011;8078;47.822;9.402;2023-12-04T09:22:53;5.37;;;3.23;;
15958;SDS011;8078;47.822;9.402;2023-12-04T09:25:18;3.43;;;2.63;;
15958;SDS011;8078;47.822;9.402;2023-12-04T09:27:44;3.57;;;2.80;;
15958;SDS011;8078;47.822;9.402;2023-12-04T09:30:10;3.03;;;2.73;;
15958;SDS011;8078;47.822;9.402;2023-12-04T09:32:36;3.47;;;2.63;;
15958;SDS011;8078;47.822;9.402;2023-12-04T09:35:01;2.70;;;2.50;;
15958;SDS011;8078;47.822;9.402;2023-12-04T09:37:27;2.23;;;2.03;;
15958;SDS011;8078;47.822;9.402;2023-12-04T09:39:52;2.67;;;2.40;;
15958;SDS011;8078;47.822;9.402;2023-12-04T09:42:18;2.53;;;2.33;;
15958;SDS011;8078;47.822;9.402;2023-12-04T09:44:44;2.93;;;2.60;;
15958;SDS011;8078;47.822;9.402;2023-12-04T09:47:12;4.00;;;2.60;;
15958;SDS011;8078;47.822;9.402;2023-12-04T09:49:39;2.90;;;2.60;;
15958;SDS011;8078;47.822;9.402;2023-12-04T09:52:05;3.20;;;2.70;;
15958;SDS011;8078;47.822;9.402;2023-12-04T09:54:31;3.43;;;2.70;;
15958;SDS011;8078;47.822;9.402;2023-12-04T09:57:00;3.67;;;2.80;;
15958;SDS011;8078;47.822;9.402;2023-12-04T09:59:26;5.40;;;3.30;;
15958;SDS011;8078;47.822;9.402;2023-12-04T10:01:54;4.50;;;3.00;;
15958;SDS011;8078;47.822;9.402;2023-12-04T10:04:21;2.63;;;2.30;;
15958;SDS011;8078;47.822;9.402;2023-12-04T10:06:49;2.80;;;2.50;;
15958;SDS011;8078;47.822;9.402;2023-12-04T10:09:16;2.50;;;2.30;;
15958;SDS011;8078;47.822;9.402;2023-12-04T10:11:42;2.67;;;2.40;;
15958;SDS011;8078;47.822;9.402;2023-12-04T10:14:14;3.07;;;2.50;;
15958;SDS011;8078;47.822;9.402;2023-12-04T10:16:42;3.23;;;2.83;;
15958;SDS011;8078;47.822;9.402;2023-12-04T10:19:41;4.00;;;2.87;;
15958;SDS011;8078;47.822;9.402;2023-12-04T10:21:59;4.10;;;3.10;;
15958;SDS011;8078;47.822;9.402;2023-12-04T10:24:29;3.70;;;3.30;;
15958;SDS011;8078;47.822;9.402;2023-12-04T10:26:56;5.37;;;3.80;;
15958;SDS011;8078;47.822;9.402;2023-12-04T10:29:23;4.63;;;3.70;;
15958;SDS011;8078;47.822;9.402;2023-12-04T10:31:49;5.83;;;4.13;;
15958;SDS011;8078;47.822;9.402;2023-12-04T10:34:17;5.80;;;3.87;;
15958;SDS011;8078;47.822;9.402;2023-12-04T10:36:44;5.50;;;3.50;;
15958;SDS011;8078;47.822;9.402;2023-12-04T10:39:10;4.27;;;3.87;;
15958;SDS011;8078;47.822;9.402;2023-12-04T10:41:38;5.63;;;4.07;;
15958;SDS011;8078;47.822;9.402;2023-12-04T10:44:04;4.57;;;3.13;;
15958;SDS011;8078;47.822;9.402;2023-12-04T10:46:29;8.63;;;4.70;;
15958;SDS011;8078;47.822;9.402;2023-12-04T10:48:56;9.50;;;5.30;;
15958;SDS011;8078;47.822;9.402;2023-12-04T10:51:23;5.20;;;4.00;;
15958;SDS011;8078;47.822;9.402;2023-12-04T10:53:49;4.60;;;3.50;;
15958;SDS011;8078;47.822;9.402;2023-12-04T10:56:18;4.73;;;3.57;;
15958;SDS011;8078;47.822;9.402;2023-12-04T10:58:47;4.00;;;2.80;;
15958;SDS011;8078;47.822;9.402;2023-12-04T11:01:15;3.70;;;3.00;;
15958;SDS011;8078;47.822;9.402;2023-12-04T11:03:47;3.37;;;2.50;;
15958;SDS011;8078;47.822;9.402;2023-12-04T11:06:14;3.47;;;2.77;;
15958;SDS011;8078;47.822;9.402;2023-12-04T11:08:42;3.73;;;3.30;;
15958;SDS011;8078;47.822;9.402;2023-12-04T11:11:10;4.20;;;3.80;;
15958;SDS011;8078;47.822;9.402;2023-12-04T11:13:39;5.33;;;3.90;;
15958;SDS011;8078;47.822;9.402;2023-12-04T11:18:36;6.43;;;4.97;;
15958;SDS011;8078;47.822;9.402;2023-12-04T11:21:04;5.00;;;4.10;;
15958;SDS011;8078;47.822;9.402;2023-12-04T11:23:32;7.20;;;4.90;;
15958;SDS011;8078;47.822;9.402;2023-12-04T11:25:58;6.60;;;4.37;;
15958;SDS011;8078;47.822;9.402;2023-12-04T11:28:26;6.00;;;3.73;;
15958;SDS011;8078;47.822;9.402;2023-12-04T11:30:53;5.77;;;4.17;;
15958;SDS011;8078;47.822;9.402;2023-12-04T11:33:19;9.00;;;5.37;;
15958;SDS011;8078;47.822;9.402;2023-12-04T11:35:45;9.53;;;5.67;;
15958;SDS011;8078;47.822;9.402;2023-12-04T11:38:14;9.97;;;7.10;;
15958;SDS011;8078;47.822;9.402;2023-12-04T11:40:41;10.63;;;7.70;;
15958;SDS011;8078;47.822;9.402;2023-12-04T11:43:25;18.30;;;11.43;;
15958;SDS011;8078;47.822;9.402;2023-12-04T11:45:52;27.93;;;15.20;;
15958;SDS011;8078;47.822;9.402;2023-12-04T11:48:24;21.60;;;12.57;;
15958;SDS011;8078;47.822;9.402;2023-12-04T11:50:50;12.70;;;7.37;;
15958;SDS011;8078;47.822;9.402;2023-12-04T11:53:16;16.70;;;9.97;;
15958;SDS011;8078;47.822;9.402;2023-12-04T11:55:42;25.97;;;14.40;;
15958;SDS011;8078;47.822;9.402;2023-12-04T11:58:09;23.13;;;12.70;;
15958;SDS011;8078;47.822;9.402;2023-12-04T12:00:35;31.27;;;14.47;;
15958;SDS011;8078;47.822;9.402;2023-12-04T12:03:04;27.47;;;13.73;;
15958;SDS011;8078;47.822;9.402;2023-12-04T12:05:31;13.23;;;8.07;;
15958;SDS011;8078;47.822;9.402;2023-12-04T12:07:59;10.17;;;5.90;;
15958;SDS011;8078;47.822;9.402;2023-12-04T12:10:25;9.23;;;5.37;;
15958;SDS011;8078;47.822;9.402;2023-12-04T12:12:52;8.87;;;5.97;;
15958;SDS011;8078;47.822;9.402;2023-12-04T12:15:18;10.77;;;6.37;;
15958;SDS011;8078;47.822;9.402;2023-12-04T12:17:44;6.60;;;5.10;;
15958;SDS011;8078;47.822;9.402;2023-12-04T12:20:10;8.67;;;5.90;;
15958;SDS011;8078;47.822;9.402;2023-12-04T12:22:38;7.17;;;5.33;;
15958;SDS011;8078;47.822;9.402;2023-12-04T12:25:09;8.33;;;6.00;;
15958;SDS011;8078;47.822;9.402;2023-12-04T12:27:36;10.30;;;6.17;;
15958;SDS011;8078;47.822;9.402;2023-12-04T12:30:02;9.87;;;5.27;;
15958;SDS011;8078;47.822;9.402;2023-12-04T12:32:32;8.50;;;5.30;;
15958;SDS011;8078;47.822;9.402;2023-12-04T12:34:59;11.93;;;5.67;;
15958;SDS011;8078;47.822;9.402;2023-12-04T12:37:24;6.63;;;4.90;;
15958;SDS011;8078;47.822;9.402;2023-12-04T12:39:51;9.57;;;5.40;;
15958;SDS011;8078;47.822;9.402;2023-12-04T12:42:23;9.07;;;5.07;;
15958;SDS011;8078;47.822;9.402;2023-12-04T12:44:50;7.83;;;5.47;;
15958;SDS011;8078;47.822;9.402;2023-12-04T12:47:16;11.47;;;5.90;;
15958;SDS011;8078;47.822;9.402;2023-12-04T12:49:41;11.67;;;7.17;;
15958;SDS011;8078;47.822;9.402;2023-12-04T12:52:08;20.70;;;10.33;;
15958;SDS011;8078;47.822;9.402;2023-12-04T12:54:42;17.43;;;10.00;;
15958;SDS011;8078;47.822;9.402;2023-12-04T12:57:09;16.63;;;9.97;;
15958;SDS011;8078;47.822;9.402;2023-12-04T12:59:40;25.00;;;12.07;;
15958;SDS011;8078;47.822;9.402;2023-12-04T13:02:06;26.80;;;13.13;;
15958;SDS011;8078;47.822;9.402;2023-12-04T13:07:01;22.30;;;11.67;;
15958;SDS011;8078;47.822;9.402;2023-12-04T13:09:28;21.77;;;12.30;;
15958;SDS011;8078;47.822;9.402;2023-12-04T13:11:54;29.70;;;15.40;;
15958;SDS011;8078;47.822;9.402;2023-12-04T13:14:20;34.63;;;17.17;;
15958;SDS011;8078;47.822;9.402;2023-12-04T13:16:45;36.00;;;16.90;;
15958;SDS011;8078;47.822;9.402;2023-12-04T13:19:11;85.33;;;19.00;;
15958;SDS011;8078;47.822;9.402;2023-12-04T13:21:37;203.37;;;24.77;;
15958;SDS011;8078;47.822;9.402;2023-12-04T13:24:03;62.17;;;20.67;;
15958;SDS011;8078;47.822;9.402;2023-12-04T13:26:32;39.20;;;17.30;;
15958;SDS011;8078;47.822;9.402;2023-12-04T13:28:58;33.23;;;15.67;;
15958;SDS011;8078;47.822;9.402;2023-12-04T13:31:24;26.87;;;13.20;;
15958;SDS011;8078;47.822;9.402;2023-12-04T13:33:52;22.83;;;11.43;;
15958;SDS011;8078;47.822;9.402;2023-12-04T13:36:18;20.47;;;10.53;;
15958;SDS011;8078;47.822;9.402;2023-12-04T13:38:44;20.47;;;10.33;;
15958;SDS011;8078;47.822;9.402;2023-12-04T13:41:10;16.10;;;9.23;;
15958;SDS011;8078;47.822;9.402;2023-12-04T13:43:55;12.83;;;7.57;;
15958;SDS011;8078;47.822;9.402;2023-12-04T13:46:22;11.87;;;5.57;;
15958;SDS011;8078;47.822;9.402;2023-12-04T13:48:49;8.63;;;5.67;;
15958;SDS011;8078;47.822;9.402;2023-12-04T13:51:15;7.73;;;4.90;;
15958;SDS011;8078;47.822;9.402;2023-12-04T13:53:41;4.87;;;3.90;;
15958;SDS011;8078;47.822;9.402;2023-12-04T13:56:14;6.17;;;4.30;;
15958;SDS011;8078;47.822;9.402;2023-12-04T13:58:46;6.43;;;3.67;;
15958;SDS011;8078;47.822;9.402;2023-12-04T14:01:15;6.73;;;4.10;;
15958;SDS011;8078;47.822;9.402;2023-12-04T14:03:47;5.30;;;4.40;;
15958;SDS011;8078;47.822;9.402;2023-12-04T14:06:13;5.07;;;3.83;;
15958;SDS011;8078;47.822;9.402;2023-12-04T14:08:42;4.10;;;3.70;;
15958;SDS011;8078;47.822;9.402;2023-12-04T14:11:08;4.57;;;4.00;;
15958;SDS011;8078;47.822;9.402;2023-12-04T14:13:39;3.97;;;3.67;;
15958;SDS011;8078;47.822;9.402;2023-12-04T14:16:05;5.97;;;4.43;;
15958;SDS011;8078;47.822;9.402;2023-12-04T14:18:31;5.53;;;4.33;;
15958;SDS011;8078;47.822;9.402;2023-12-04T14:20:57;4.30;;;3.70;;
15958;SDS011;8078;47.822;9.402;2023-12-04T14:23:23;4.73;;;4.17;;
15958;SDS011;8078;47.822;9.402;2023-12-04T14:25:49;4.00;;;3.60;;
15958;SDS011;8078;47.822;9.402;2023-12-04T14:28:16;5.37;;;4.33;;
15958;SDS011;8078;47.822;9.402;2023-12-04T14:30:42;5.10;;;4.20;;
15958;SDS011;8078;47.822;9.402;2023-12-04T14:33:08;5.10;;;4.40;;
15958;SDS011;8078;47.822;9.402;2023-12-04T14:35:34;5.67;;;4.60;;
15958;SDS011;8078;47.822;9.402;2023-12-04T14:38:01;3.63;;;3.33;;
15958;SDS011;8078;47.822;9.402;2023-12-04T14:40:27;5.73;;;3.83;;
15958;SDS011;8078;47.822;9.402;2023-12-04T14:42:53;4.17;;;3.60;;
15958;SDS011;8078;47.822;9.402;2023-12-04T14:45:19;4.67;;;3.50;;